createdAt,value
2023-05-08T00:00:49.033Z,98391.97
2023-05-08T00:03:18.434Z,98395.38
2023-05-08T00:05:46.616Z,98394.63
2023-05-08T00:08:14.684Z,98384.53
2023-05-08T00:10:43.063Z,98384.59
2023-05-08T00:13:11.178Z,98382.09
2023-05-08T00:15:39.585Z,98392.56
2023-05-08T00:18:09.374Z,98393.44
2023-05-08T00:20:37.941Z,98395.28
2023-05-08T00:23:06.415Z,98391.25
2023-05-08T00:25:34.728Z,98390.44
2023-05-08T00:28:03.095Z,98392.28
2023-05-08T00:30:31.294Z,98390.69
2023-05-08T00:32:59.670Z,98389.88
2023-05-08T00:35:29.379Z,98394.41
2023-05-08T00:37:57.658Z,98388.47
2023-05-08T00:40:27.057Z,98385.22
2023-05-08T00:42:55.458Z,98386.81
2023-05-08T00:45:23.664Z,98393.88
2023-05-08T00:47:52.485Z,98389.72
2023-05-08T00:50:21.257Z,98394.09
2023-05-08T00:52:51.724Z,98401.00
2023-05-08T00:55:21.130Z,98389.19
2023-05-08T00:57:49.573Z,98393.41
2023-05-08T01:00:19.959Z,98398.63
2023-05-08T01:02:48.973Z,98409.03
2023-05-08T01:05:17.559Z,98413.34
2023-05-08T01:07:46.452Z,98415.09
2023-05-08T01:10:16.450Z,98410.00
2023-05-08T01:12:57.692Z,98415.13
2023-05-08T01:15:32.968Z,98414.25
2023-05-08T01:18:13.271Z,98414.34
2023-05-08T01:20:50.133Z,98427.16
2023-05-08T01:23:58.737Z,98428.91
2023-05-08T01:27:11.325Z,98427.22
2023-05-08T01:30:17.695Z,98434.09
2023-05-08T01:32:57.566Z,98435.75
2023-05-08T01:35:31.265Z,98438.25
2023-05-08T01:38:06.084Z,98432.22
2023-05-08T01:40:42.274Z,98436.53
2023-05-08T01:43:20.246Z,98422.78
2023-05-08T01:45:51.387Z,98435.44
2023-05-08T01:48:25.782Z,98438.84
2023-05-08T01:50:59.806Z,98442.47
2023-05-08T01:53:30.272Z,98442.31
2023-05-08T01:56:01.897Z,98445.13
2023-05-08T01:58:32.631Z,98437.59
2023-05-08T02:01:04.048Z,98449.56
2023-05-08T02:03:36.458Z,98448.81
2023-05-08T02:06:06.150Z,98451.69
2023-05-08T02:08:36.509Z,98457.81
2023-05-08T02:11:07.255Z,98450.28
2023-05-08T02:13:38.132Z,98448.59
2023-05-08T02:16:09.622Z,98454.66
2023-05-08T02:18:42.840Z,98454.75
2023-05-08T02:21:14.057Z,98456.53
2023-05-08T02:23:45.021Z,98450.69
2023-05-08T02:26:16.083Z,98461.91
2023-05-08T02:28:44.699Z,98455.97
2023-05-08T02:31:14.783Z,98454.28
2023-05-08T02:33:46.566Z,98446.00
2023-05-08T02:36:19.037Z,98444.31
2023-05-08T02:38:52.109Z,98454.53
2023-05-08T02:41:23.106Z,98460.63
2023-05-08T02:43:52.980Z,98453.88
2023-05-08T02:46:26.414Z,98464.13
2023-05-08T02:49:03.854Z,98464.09
2023-05-08T02:51:44.422Z,98467.41
2023-05-08T02:54:19.226Z,98464.84
2023-05-08T02:56:56.943Z,98464.84
2023-05-08T02:59:32.863Z,98475.22
2023-05-08T03:02:08.051Z,98465.88
2023-05-08T03:04:41.869Z,98473.59
2023-05-08T03:07:11.759Z,98468.63
2023-05-08T03:09:44.636Z,98468.66
2023-05-08T03:12:18.685Z,98475.63
2023-05-08T03:14:53.303Z,98468.72
2023-05-08T03:17:24.202Z,98474.88
2023-05-08T03:20:00.734Z,98485.25
2023-05-08T03:22:30.459Z,98474.16
2023-05-08T03:25:01.089Z,98467.28
2023-05-08T03:27:30.737Z,98480.22
2023-05-08T03:30:00.802Z,98472.56
2023-05-08T03:32:31.052Z,98480.28
2023-05-08T03:35:04.096Z,98473.50
2023-05-08T03:37:32.375Z,98471.84
2023-05-08T03:40:01.218Z,98473.63
2023-05-08T03:42:29.751Z,98477.88
2023-05-08T03:44:59.216Z,98472.06
2023-05-08T03:47:28.686Z,98474.44
2023-05-08T03:49:57.196Z,98470.22
2023-05-08T03:52:27.388Z,98477.94
2023-05-08T03:54:55.597Z,98475.59
2023-05-08T03:57:29.692Z,98479.06
2023-05-08T04:00:02.568Z,98482.41
2023-05-08T04:02:40.136Z,98479.06
2023-05-08T04:05:22.349Z,98485.88
2023-05-08T04:07:55.285Z,98481.53
2023-05-08T04:10:28.352Z,98481.69
2023-05-08T04:13:04.877Z,98490.94
2023-05-08T04:15:37.438Z,98489.25
2023-05-08T04:18:10.222Z,98491.72
2023-05-08T04:20:41.864Z,98503.78
2023-05-08T04:23:18.517Z,98506.34
2023-05-08T04:25:48.649Z,98494.44
2023-05-08T04:28:17.162Z,98514.81
2023-05-08T04:30:46.559Z,98508.81
2023-05-08T04:33:18.387Z,98508.81
2023-05-08T04:35:47.517Z,98506.22
2023-05-08T04:38:17.217Z,98503.53
2023-05-08T04:40:45.295Z,98503.53
2023-05-08T04:43:14.186Z,98511.94
2023-05-08T04:45:42.499Z,98510.31
2023-05-08T04:48:10.861Z,98514.34
2023-05-08T04:50:39.658Z,98515.91
2023-05-08T04:53:08.243Z,98517.81
2023-05-08T04:55:38.132Z,98519.56
2023-05-08T04:58:06.549Z,98523.06
2023-05-08T05:00:35.889Z,98517.19
2023-05-08T05:03:04.750Z,98528.16
2023-05-08T05:05:33.058Z,98528.16
2023-05-08T05:08:01.724Z,98531.63
2023-05-08T05:10:30.168Z,98524.69
2023-05-08T05:13:02.127Z,98522.97
2023-05-08T05:15:30.758Z,98535.78
2023-05-08T05:17:59.128Z,98538.22
2023-05-08T05:20:27.359Z,98532.97
2023-05-08T05:22:55.925Z,98537.06
2023-05-08T05:25:24.324Z,98530.91
2023-05-08T05:27:52.779Z,98527.03
2023-05-08T05:30:22.791Z,98513.94
2023-05-08T05:32:51.378Z,98523.66
2023-05-08T05:35:25.395Z,98514.38
2023-05-08T05:37:54.086Z,98527.03
2023-05-08T05:40:23.295Z,98527.66
2023-05-08T05:42:52.483Z,98528.34
2023-05-08T05:45:22.176Z,98534.34
2023-05-08T05:47:54.356Z,98532.22
2023-05-08T05:50:23.089Z,98524.69
2023-05-08T05:52:51.446Z,98538.19
2023-05-08T05:55:19.884Z,98530.41
2023-05-08T05:57:48.629Z,98536.88
2023-05-08T06:00:19.210Z,98539.59
2023-05-08T06:02:49.631Z,98535.34
2023-05-08T06:05:19.322Z,98535.25
2023-05-08T06:07:47.880Z,98539.31
2023-05-08T06:10:16.329Z,98538.13
2023-05-08T06:12:44.655Z,98539.06
2023-05-08T06:15:15.406Z,98539.50
2023-05-08T06:17:44.149Z,98545.13
2023-05-08T06:20:14.234Z,98538.69
2023-05-08T06:22:42.753Z,98542.00
2023-05-08T06:25:11.909Z,98538.22
2023-05-08T06:27:40.438Z,98543.94
2023-05-08T06:30:11.025Z,98546.66
2023-05-08T06:32:39.430Z,98539.31
2023-05-08T06:35:09.076Z,98551.16
2023-05-08T06:37:39.178Z,98551.13
2023-05-08T06:40:12.198Z,98550.16
2023-05-08T06:42:41.846Z,98548.44
2023-05-08T06:45:11.408Z,98551.63
2023-05-08T06:47:40.124Z,98547.44
2023-05-08T06:50:09.563Z,98551.31
2023-05-08T06:52:39.471Z,98545.19
2023-05-08T06:55:08.280Z,98545.56
2023-05-08T06:57:37.044Z,98544.81
2023-05-08T07:00:06.830Z,98542.59
2023-05-08T07:02:35.270Z,98540.81
2023-05-08T07:05:03.670Z,98546.66
2023-05-08T07:07:32.174Z,98546.44
2023-05-08T07:10:02.108Z,98542.25
2023-05-08T07:12:30.248Z,98546.84
2023-05-08T07:14:58.726Z,98545.28
2023-05-08T07:17:27.365Z,98540.59
2023-05-08T07:19:55.850Z,98552.06
2023-05-08T07:22:24.542Z,98543.59
2023-05-08T07:24:52.704Z,98535.47
2023-05-08T07:27:22.397Z,98537.06
2023-05-08T07:29:50.807Z,98548.25
2023-05-08T07:32:19.268Z,98542.50
2023-05-08T07:34:48.181Z,98546.34
2023-05-08T07:37:16.929Z,98541.41
2023-05-08T07:39:45.503Z,98545.59
2023-05-08T07:42:14.177Z,98547.81
2023-05-08T07:44:53.739Z,98551.53
2023-05-08T07:47:23.253Z,98548.75
2023-05-08T07:49:51.654Z,98549.94
2023-05-08T07:52:19.986Z,98550.53
2023-05-08T07:54:48.375Z,98546.53
2023-05-08T07:57:17.251Z,98551.59
2023-05-08T07:59:47.321Z,98547.56
2023-05-08T08:02:16.033Z,98547.88
2023-05-08T08:04:44.755Z,98542.78
2023-05-08T08:07:13.592Z,98545.44
2023-05-08T08:09:42.026Z,98541.88
2023-05-08T08:12:11.548Z,98543.47
2023-05-08T08:14:40.020Z,98539.81
2023-05-08T08:17:10.419Z,98548.41
2023-05-08T08:19:38.930Z,98545.31
2023-05-08T08:22:07.927Z,98548.47
2023-05-08T08:24:36.625Z,98542.75
2023-05-08T08:27:04.946Z,98541.81
2023-05-08T08:29:33.338Z,98539.34
2023-05-08T08:32:03.407Z,98539.47
2023-05-08T08:34:34.748Z,98533.72
2023-05-08T08:37:03.413Z,98543.69
2023-05-08T08:39:34.762Z,98538.94
2023-05-08T08:42:03.363Z,98537.78
2023-05-08T08:44:31.805Z,98537.06
2023-05-08T08:47:01.043Z,98541.28
2023-05-08T08:49:35.054Z,98532.41
2023-05-08T08:52:05.013Z,98534.00
2023-05-08T08:54:36.427Z,98540.13
2023-05-08T08:57:10.393Z,98542.34
2023-05-08T08:59:39.592Z,98535.59
2023-05-08T09:02:13.029Z,98540.47
2023-05-08T09:04:43.464Z,98537.81
2023-05-08T09:07:14.213Z,98539.22
2023-05-08T09:09:44.594Z,98545.97
2023-05-08T09:12:14.913Z,98541.25
2023-05-08T09:14:43.735Z,98544.47
2023-05-08T09:17:12.033Z,98538.00
2023-05-08T09:19:40.979Z,98530.97
2023-05-08T09:22:12.168Z,98527.56
2023-05-08T09:24:58.511Z,98539.56
2023-05-08T09:27:28.759Z,98539.41
2023-05-08T09:30:02.584Z,98533.88
2023-05-08T09:32:31.915Z,98531.38
2023-05-08T09:35:00.490Z,98522.72
2023-05-08T09:37:31.398Z,98533.25
2023-05-08T09:40:15.844Z,98521.13
2023-05-08T09:42:44.369Z,98528.47
2023-05-08T09:45:13.734Z,98522.44
2023-05-08T09:47:49.748Z,98533.41
2023-05-08T09:50:18.602Z,98527.72
2023-05-08T09:52:51.077Z,98531.50
2023-05-08T09:55:19.552Z,98537.34
2023-05-08T09:57:58.425Z,98533.22
2023-05-08T10:00:28.278Z,98538.25
2023-05-08T10:02:58.488Z,98534.38
2023-05-08T10:05:30.158Z,98537.44
2023-05-08T10:08:00.976Z,98522.91
2023-05-08T10:10:31.834Z,98533.44
2023-05-08T10:13:00.719Z,98530.28
2023-05-08T10:15:32.633Z,98530.13
2023-05-08T10:18:06.338Z,98528.41
2023-05-08T10:20:36.197Z,98542.47
2023-05-08T10:23:11.688Z,98526.34
2023-05-08T10:25:46.649Z,98521.72
2023-05-08T10:28:19.867Z,98522.00
2023-05-08T10:30:50.893Z,98529.53
2023-05-08T10:33:22.427Z,98522.31
2023-05-08T10:35:51.227Z,98527.44
2023-05-08T10:38:21.899Z,98520.53
2023-05-08T10:40:53.379Z,98522.47
2023-05-08T10:43:22.273Z,98512.56
2023-05-08T10:45:51.207Z,98534.50
2023-05-08T10:48:27.670Z,98522.06
2023-05-08T10:51:04.634Z,98530.50
2023-05-08T10:53:40.576Z,98525.38
2023-05-08T10:56:09.589Z,98519.94
2023-05-08T10:58:40.512Z,98520.72
2023-05-08T11:01:16.661Z,98512.25
2023-05-08T11:03:48.110Z,98513.09
2023-05-08T11:06:17.043Z,98522.03
2023-05-08T11:08:51.977Z,98519.75
2023-05-08T11:11:30.494Z,98516.91
2023-05-08T11:14:13.535Z,98517.97
2023-05-08T11:17:08.159Z,98506.44
2023-05-08T11:19:37.957Z,98512.19
2023-05-08T11:22:38.289Z,98498.97
2023-05-08T11:25:11.185Z,98497.28
2023-05-08T11:28:11.596Z,98504.94
2023-05-08T11:30:41.660Z,98507.13
2023-05-08T11:33:17.621Z,98511.06
2023-05-08T11:35:54.256Z,98502.22
2023-05-08T11:38:26.099Z,98504.88
2023-05-08T11:41:00.870Z,98494.75
2023-05-08T11:44:01.138Z,98496.16
2023-05-08T11:46:40.136Z,98505.84
2023-05-08T11:49:12.902Z,98504.59
2023-05-08T11:51:45.119Z,98507.16
2023-05-08T11:54:19.277Z,98503.84
2023-05-08T11:56:49.275Z,98508.03
2023-05-08T11:59:19.034Z,98497.97
2023-05-08T12:02:06.982Z,98500.50
2023-05-08T12:04:45.574Z,98497.47
2023-05-08T12:07:16.317Z,98493.44
2023-05-08T12:09:45.019Z,98497.22
2023-05-08T12:12:14.690Z,98499.44
2023-05-08T12:14:43.784Z,98503.59
2023-05-08T12:17:12.443Z,98500.47
2023-05-08T12:19:40.803Z,98496.97
2023-05-08T12:22:10.409Z,98495.63
2023-05-08T12:24:40.217Z,98508.50
2023-05-08T12:27:09.609Z,98497.84
2023-05-08T12:29:39.785Z,98513.44
2023-05-08T12:32:08.394Z,98498.38
2023-05-08T12:34:38.280Z,98508.16
2023-05-08T12:37:06.685Z,98505.53
2023-05-08T12:39:39.073Z,98494.09
2023-05-08T12:42:07.827Z,98494.94
2023-05-08T12:44:36.666Z,98491.13
2023-05-08T12:47:06.779Z,98496.16
2023-05-08T12:49:35.294Z,98499.97
2023-05-08T12:52:05.266Z,98500.75
2023-05-08T12:54:35.266Z,98506.03
2023-05-08T12:57:08.227Z,98501.84
2023-05-08T12:59:36.788Z,98490.72
2023-05-08T13:02:13.269Z,98511.44
2023-05-08T13:04:41.835Z,98495.41
2023-05-08T13:07:10.208Z,98495.72
2023-05-08T13:09:38.744Z,98491.97
2023-05-08T13:12:07.847Z,98491.78
2023-05-08T13:14:36.507Z,98493.97
2023-05-08T13:17:06.590Z,98490.56
2023-05-08T13:19:35.241Z,98481.13
2023-05-08T13:22:03.707Z,98483.88
2023-05-08T13:24:32.149Z,98481.09
2023-05-08T13:27:00.712Z,98471.25
2023-05-08T13:29:30.083Z,98477.66
2023-05-08T13:31:58.747Z,98475.81
2023-05-08T13:34:29.120Z,98477.75
2023-05-08T13:36:57.988Z,98468.38
2023-05-08T13:39:26.435Z,98465.06
2023-05-08T13:41:54.821Z,98468.81
2023-05-08T13:44:23.467Z,98460.44
2023-05-08T13:46:52.144Z,98466.03
2023-05-08T13:49:24.439Z,98461.00
2023-05-08T13:51:57.071Z,98468.47
2023-05-08T13:54:25.803Z,98468.00
2023-05-08T13:56:54.674Z,98452.34
2023-05-08T13:59:23.284Z,98457.59
2023-05-08T14:01:53.136Z,98449.06
2023-05-08T14:04:21.886Z,98458.88
2023-05-08T14:06:51.960Z,98451.44
2023-05-08T14:09:22.002Z,98452.44
2023-05-08T14:11:50.646Z,98457.41
2023-05-08T14:14:18.828Z,98452.72
2023-05-08T14:16:47.308Z,98451.50
2023-05-08T14:19:15.572Z,98453.94
2023-05-08T14:21:43.845Z,98448.97
2023-05-08T14:24:12.472Z,98441.25
2023-05-08T14:26:44.869Z,98439.56
2023-05-08T14:29:13.595Z,98441.66
2023-05-08T14:31:41.794Z,98439.50
2023-05-08T14:34:10.440Z,98435.81
2023-05-08T14:36:39.464Z,98435.81
2023-05-08T14:39:08.941Z,98431.91
2023-05-08T14:41:38.515Z,98412.81
2023-05-08T14:44:08.632Z,98422.47
2023-05-08T14:46:37.577Z,98433.44
2023-05-08T14:49:06.789Z,98420.34
2023-05-08T14:51:35.538Z,98418.09
2023-05-08T14:54:04.736Z,98430.31
2023-05-08T14:56:44.423Z,98423.38
2023-05-08T14:59:17.405Z,98410.59
2023-05-08T15:01:45.946Z,98424.25
2023-05-08T15:04:15.086Z,98415.53
2023-05-08T15:06:43.341Z,98422.59
2023-05-08T15:09:11.998Z,98428.13
2023-05-08T15:11:40.201Z,98425.25
2023-05-08T15:14:08.811Z,98434.00
2023-05-08T15:16:38.842Z,98421.53
2023-05-08T15:19:09.980Z,98417.44
2023-05-08T15:21:38.434Z,98424.69
2023-05-08T15:24:07.663Z,98426.97
2023-05-08T15:26:36.744Z,98407.94
2023-05-08T15:29:05.842Z,98423.09
2023-05-08T15:31:36.403Z,98427.19
2023-05-08T15:34:08.928Z,98431.91
2023-05-08T15:36:38.361Z,98427.31
2023-05-08T15:39:09.605Z,98428.06
2023-05-08T15:41:40.129Z,98427.47
2023-05-08T15:44:09.532Z,98436.13
2023-05-08T15:46:38.153Z,98444.44
2023-05-08T15:49:09.060Z,98420.75
2023-05-08T15:51:37.858Z,98425.91
2023-05-08T15:54:06.488Z,98428.41
2023-05-08T15:56:36.125Z,98428.47
2023-05-08T15:59:05.253Z,98427.88
2023-05-08T16:01:33.896Z,98431.28
2023-05-08T16:04:02.236Z,98425.69
2023-05-08T16:06:33.481Z,98429.38
2023-05-08T16:09:02.532Z,98425.09
2023-05-08T16:11:32.506Z,98421.06
2023-05-08T16:14:02.426Z,98429.25
2023-05-08T16:16:31.167Z,98418.78
2023-05-08T16:18:59.664Z,98425.66
2023-05-08T16:21:28.151Z,98420.38
2023-05-08T16:23:58.182Z,98418.50
2023-05-08T16:26:27.362Z,98414.44
2023-05-08T16:28:56.277Z,98423.31
2023-05-08T16:31:24.997Z,98422.78
2023-05-08T16:33:56.766Z,98425.41
2023-05-08T16:36:27.309Z,98412.53
2023-05-08T16:38:56.510Z,98428.06
2023-05-08T16:41:28.044Z,98424.19
2023-05-08T16:43:56.718Z,98431.00
2023-05-08T16:46:29.843Z,98426.56
2023-05-08T16:48:58.627Z,98428.53
2023-05-08T16:51:28.266Z,98405.69
2023-05-08T16:53:57.997Z,98428.59
2023-05-08T16:56:28.681Z,98429.56
2023-05-08T16:58:58.480Z,98425.22
2023-05-08T17:01:26.948Z,98431.47
2023-05-08T17:03:56.572Z,98435.22
2023-05-08T17:06:25.387Z,98435.22
2023-05-08T17:08:58.259Z,98438.63
2023-05-08T17:11:27.967Z,98427.72
2023-05-08T17:13:56.600Z,98441.09
2023-05-08T17:16:25.837Z,98428.94
2023-05-08T17:18:54.878Z,98443.59
2023-05-08T17:21:24.202Z,98440.28
2023-05-08T17:23:52.405Z,98449.13
2023-05-08T17:26:21.893Z,98444.88
2023-05-08T17:28:51.799Z,98446.47
2023-05-08T17:31:20.700Z,98440.56
2023-05-08T17:33:49.468Z,98444.88
2023-05-08T17:36:17.910Z,98444.56
2023-05-08T17:38:47.532Z,98450.94
2023-05-08T17:41:16.585Z,98455.28
2023-05-08T17:43:45.849Z,98446.75
2023-05-08T17:46:15.870Z,98452.91
2023-05-08T17:48:44.159Z,98448.44
2023-05-08T17:51:14.039Z,98458.81
2023-05-08T17:53:44.105Z,98459.72
2023-05-08T17:56:13.005Z,98457.13
2023-05-08T17:58:41.285Z,98465.09
2023-05-08T18:01:09.716Z,98471.00
2023-05-08T18:03:39.505Z,98469.31
2023-05-08T18:06:08.628Z,98463.41
2023-05-08T18:08:36.836Z,98452.72
2023-05-08T18:11:05.309Z,98463.41
2023-05-08T18:13:34.965Z,98461.88
2023-05-08T18:16:03.386Z,98468.66
2023-05-08T18:18:31.930Z,98468.03
2023-05-08T18:21:01.712Z,98477.56
2023-05-08T18:23:30.200Z,98477.69
2023-05-08T18:25:58.380Z,98463.41
2023-05-08T18:28:27.006Z,98456.00
2023-05-08T18:30:55.533Z,98473.13
2023-05-08T18:33:23.788Z,98484.09
2023-05-08T18:35:52.667Z,98449.75
2023-05-08T18:38:22.635Z,98484.34
2023-05-08T18:40:50.877Z,98488.94
2023-05-08T18:43:19.296Z,98483.84
2023-05-08T18:45:47.844Z,98489.16
2023-05-08T18:48:17.196Z,98470.00
2023-05-08T18:50:45.336Z,98494.53
2023-05-08T18:53:14.900Z,98498.13
2023-05-08T18:55:45.723Z,98481.31
2023-05-08T18:58:14.411Z,98492.94
2023-05-08T19:00:43.196Z,98495.72
2023-05-08T19:03:11.796Z,98498.53
2023-05-08T19:05:40.266Z,98499.41
2023-05-08T19:08:08.949Z,98491.09
2023-05-08T19:10:37.218Z,98506.59
2023-05-08T19:13:07.227Z,98499.78
2023-05-08T19:15:35.644Z,98499.03
2023-05-08T19:18:04.756Z,98499.91
2023-05-08T19:20:32.965Z,98499.94
2023-05-08T19:23:01.098Z,98499.00
2023-05-08T19:25:29.227Z,98493.81
2023-05-08T19:27:58.756Z,98504.19
2023-05-08T19:30:28.519Z,98502.53
2023-05-08T19:32:56.802Z,98500.88
2023-05-08T19:35:25.304Z,98501.00
2023-05-08T19:37:53.846Z,98457.97
2023-05-08T19:40:23.201Z,98499.53
2023-05-08T19:42:52.490Z,98496.13
2023-05-08T19:45:20.986Z,98497.19
2023-05-08T19:47:50.718Z,98458.53
2023-05-08T19:50:19.053Z,98499.78
2023-05-08T19:52:48.812Z,98506.00
2023-05-08T19:55:17.806Z,98469.81
2023-05-08T19:57:46.177Z,98492.72
2023-05-08T20:00:14.975Z,98521.66
2023-05-08T20:02:43.821Z,98520.09
2023-05-08T20:05:22.418Z,98514.25
2023-05-08T20:07:51.833Z,98521.13
2023-05-08T20:10:20.155Z,98522.28
2023-05-08T20:12:48.467Z,98504.56
2023-05-08T20:15:16.493Z,98521.56
2023-05-08T20:17:45.088Z,98523.53
2023-05-08T20:20:15.110Z,98499.81
2023-05-08T20:22:43.998Z,98482.16
2023-05-08T20:25:12.142Z,98521.16
2023-05-08T20:27:40.401Z,98517.84
2023-05-08T20:30:09.892Z,98512.75
2023-05-08T20:32:38.386Z,98507.78
2023-05-08T20:35:08.538Z,98505.34
2023-05-08T20:37:44.680Z,98512.31
2023-05-08T20:40:14.000Z,98512.31
2023-05-08T20:42:42.551Z,98497.94
2023-05-08T20:45:12.041Z,98507.31
2023-05-08T20:47:41.530Z,98503.94
2023-05-08T20:50:11.198Z,98510.00
2023-05-08T20:52:42.565Z,98512.63
2023-05-08T20:55:11.762Z,98506.00
2023-05-08T20:57:40.236Z,98479.06
2023-05-08T21:00:09.855Z,98499.44
2023-05-08T21:02:40.283Z,98507.41
2023-05-08T21:05:11.568Z,98501.41
2023-05-08T21:07:42.513Z,98470.09
2023-05-08T21:10:11.676Z,98490.31
2023-05-08T21:12:40.288Z,98489.41
2023-05-08T21:15:09.539Z,98491.13
2023-05-08T21:17:37.835Z,98475.91
2023-05-08T21:20:07.185Z,98487.53
2023-05-08T21:22:35.400Z,98469.78
2023-05-08T21:25:05.588Z,98483.28
2023-05-08T21:27:33.891Z,98487.41
2023-05-08T21:30:02.410Z,98473.00
2023-05-08T21:32:30.816Z,98481.50
2023-05-08T21:34:58.977Z,98473.88
2023-05-08T21:37:27.571Z,98468.91
2023-05-08T21:39:55.615Z,98471.47
2023-05-08T21:42:25.065Z,98469.09
2023-05-08T21:44:56.154Z,98465.66
2023-05-08T21:47:27.444Z,98462.34
2023-05-08T21:49:56.153Z,98463.88
2023-05-08T21:52:26.108Z,98464.75
2023-05-08T21:54:54.415Z,98458.19
2023-05-08T21:57:22.627Z,98460.69
2023-05-08T21:59:52.115Z,98462.63
2023-05-08T22:02:21.172Z,98460.69
2023-05-08T22:04:49.286Z,98436.19
2023-05-08T22:07:19.632Z,98458.31
2023-05-08T22:09:47.820Z,98453.09
2023-05-08T22:12:16.060Z,98449.13
2023-05-08T22:14:44.422Z,98454.59
2023-05-08T22:17:13.863Z,98454.09
2023-05-08T22:19:41.955Z,98439.03
2023-05-08T22:22:10.089Z,98446.88
2023-05-08T22:24:38.162Z,98445.09
2023-05-08T22:27:06.635Z,98446.88
2023-05-08T22:29:34.690Z,98422.47
2023-05-08T22:32:03.497Z,98454.53
2023-05-08T22:34:33.607Z,98451.31
2023-05-08T22:37:02.126Z,98435.97
2023-05-08T22:39:30.243Z,98452.06
2023-05-08T22:41:58.421Z,98455.53
2023-05-08T22:44:26.884Z,98440.31
2023-05-08T22:46:55.306Z,98446.31
2023-05-08T22:49:23.533Z,98447.84
2023-05-08T22:51:53.473Z,98435.03
2023-05-08T22:54:21.682Z,98420.81
2023-05-08T22:56:50.076Z,98450.38
2023-05-08T22:59:18.131Z,98447.84
2023-05-08T23:01:46.231Z,98447.94
2023-05-08T23:04:14.553Z,98449.56
2023-05-08T23:06:43.315Z,98446.16
2023-05-08T23:09:13.482Z,98441.03
2023-05-08T23:11:41.774Z,98447.84
2023-05-08T23:14:10.096Z,98432.66
2023-05-08T23:16:38.161Z,98442.69
2023-05-08T23:19:07.445Z,98440.88
2023-05-08T23:21:35.758Z,98427.31
2023-05-08T23:24:03.998Z,98437.56
2023-05-08T23:26:33.569Z,98435.81
2023-05-08T23:29:02.807Z,98433.47
2023-05-08T23:31:31.206Z,98440.22
2023-05-08T23:33:59.358Z,98436.88
2023-05-08T23:36:28.160Z,98442.78
2023-05-08T23:38:56.744Z,98442.81
2023-05-08T23:41:26.046Z,98436.88
2023-05-08T23:43:56.120Z,98433.47
2023-05-08T23:46:24.465Z,98412.50
2023-05-08T23:48:52.645Z,98424.28
2023-05-08T23:51:20.981Z,98427.84
2023-05-08T23:53:50.259Z,98413.19
2023-05-08T23:56:18.442Z,98405.75
2023-05-08T23:58:46.788Z,98414.44
